Gavdos, Greece
Current Conditions -  °F | °C
As of 3:20 AM on Monday 26 Jan 2015 (Local Time) from LGSA Reporting Station
Broken Clouds Broken Clouds  
Wind Chill: 50°   Ceiling: 8000
Heat Index: 50°   Visibility: 6mi
Dew Point: 46°   Wind: 6mph
Humidity: 87%   Direction: 300°WNW
Pressure: 29.91"   Gusts: NA
Location:  34.84°N, 24.09°E
Report Text: LGSA 260020Z 30005KT 9999 FEW018TCU SCT030 BKN080 10/08 Q1013
Loading
Personal Weather Stations






























Interactive Weather Map New forecast layout! Learn more

10-Day Weather Forecast

Advertisements
Track Severe Weather on mobile